Pagina principale
METAR-TAF:

METAR-TAF

Aeroporti :

Aeroporto di Pantelleria

Pantelleria, Italia

latitudine: 36-49N, longitudine: 011-58E, altezza: 191 m

Osservazione

Il bollettino è stato emesso 11 ore e 37 minuti fa, alle 17:55 UTC
Vento 2 kt da est
Temperature 11°C
Umidità 87%
Pressione 1021 hPa
Visibilità 10 km o più
Poco nuvoloso ad un'altezza di 2000 ft

METAR: LICG 191755Z 09002KT 9999 FEW020 11/09 Q1021 RMK FEW VIS MIN 9999 WIND THR08 08002KT WIND THR21 08002KT BLU

Ora: 06:32 (05:32 UTC)

Previsione

Il bollettino è stato emesso 12 ore e 32 minuti fa, alle 17:00 UTC
Previsione valida dal 19 alle 18 UTC al 20 alle 03 UTC
Vento 5 kt da sud/sud-est
Visibilità 10 km o più
Poco nuvoloso ad un'altezza di 2000 ft

TAF: LICG 191700Z 1918/2003 15005KT 9999 FEW020

Osservazioni e previsioni meteorologiche di più di 4000 aeroporti (messaggi METAR e TAF).

Le stazioni disponibili sono rappresentate dai dischi gialli e rossi sulla carta.

Puntare il mouse per vedere il nome della stazione.

Clicca sopra per visualizzare le osservazioni e previsioni meteorologiche.

Per cambiare la mappa : fare clic sui pulsanti verdi con una croce nera per ingrandire, il pulsante verde con un trattino per diminuire, o sulla freccia verde per le mappe adiacenti.


METAR-TAF: